Time;durP1;ratioP1;P1;durP2;ratioP2;P2;SDS_P1;SDS_P2;PMS_P1;PMS_P2;Temp;Humidity;BMP_temperature;BMP_pressure;BME280_temperature;BME280_humidity;BME280_pressure;Samples;Min_cycle;Max_cycle;Signal;HPM_P1;HPM_P2
2023/01/20 00:00:07;;;;;;;14.93;10.70;;;;;;;4.20;57.37;96781.34;5030337;28;20180;-72
2023/01/20 00:02:33;;;;;;;15.17;10.13;;;;;;;4.20;57.18;96778.75;5037244;28;20179;-71
2023/01/20 00:04:58;;;;;;;18.77;11.37;;;;;;;4.17;57.83;96776.38;5030805;28;20798;-72
2023/01/20 00:07:24;;;;;;;18.50;11.77;;;;;;;4.14;57.41;96785.25;5036736;28;20662;-71
2023/01/20 00:09:49;;;;;;;16.03;11.00;;;;;;;4.06;57.71;96783.25;5034143;28;20262;-72
2023/01/20 00:12:14;;;;;;;14.10;11.07;;;;;;;3.97;58.67;96784.00;5032811;28;20180;-72
2023/01/20 00:14:40;;;;;;;21.77;11.73;;;;;;;4.04;58.30;96781.75;5038726;28;20200;-70
2023/01/20 00:17:05;;;;;;;15.27;10.30;;;;;;;4.13;57.62;96791.38;5031656;28;20212;-72
2023/01/20 00:19:31;;;;;;;16.63;10.30;;;;;;;4.12;57.97;96793.16;5033225;28;20607;-71
2023/01/20 00:21:56;;;;;;;17.73;11.40;;;;;;;3.96;58.56;96792.72;5037162;28;20188;-70
2023/01/20 00:24:22;;;;;;;17.70;10.87;;;;;;;3.79;58.61;96797.44;5032314;28;20200;-72
2023/01/20 00:26:47;;;;;;;14.13;11.00;;;;;;;3.89;59.00;96799.34;5031033;28;20176;-70
2023/01/20 00:29:13;;;;;;;21.90;11.10;;;;;;;3.95;58.59;96802.28;5033400;28;20596;-71
2023/01/20 00:31:38;;;;;;;14.30;10.57;;;;;;;3.99;58.76;96800.25;5032376;28;20234;-71
2023/01/20 00:34:04;;;;;;;14.60;10.30;;;;;;;3.86;58.80;96807.34;5038730;28;20756;-70
2023/01/20 00:36:31;;;;;;;14.20;10.50;;;;;;;3.89;58.81;96807.13;5041342;28;20178;-71
2023/01/20 00:38:56;;;;;;;16.40;10.63;;;;;;;3.90;59.22;96821.72;5042077;28;20183;-71
2023/01/20 00:41:22;;;;;;;13.80;11.20;;;;;;;4.05;58.73;96820.50;5042219;28;20408;-70
2023/01/20 00:43:48;;;;;;;16.87;10.83;;;;;;;4.13;58.47;96815.56;5049965;28;20700;-70
2023/01/20 00:46:13;;;;;;;14.97;10.57;;;;;;;4.20;58.05;96818.50;5045411;28;20207;-71
2023/01/20 00:48:39;;;;;;;18.17;11.60;;;;;;;4.26;58.21;96819.78;5054928;28;20266;-70
2023/01/20 00:51:06;;;;;;;25.97;10.80;;;;;;;4.26;57.53;96825.78;5054367;28;20182;-69
2023/01/20 00:53:31;;;;;;;17.00;11.50;;;;;;;4.25;57.46;96820.72;5053479;28;20199;-70
2023/01/20 00:55:57;;;;;;;18.03;11.13;;;;;;;4.27;57.88;96824.00;5053472;28;20966;-71
2023/01/20 00:58:22;;;;;;;15.13;10.20;;;;;;;4.34;58.27;96830.34;5053130;28;20218;-70
2023/01/20 01:00:49;;;;;;;12.70;10.13;;;;;;;4.27;57.94;96829.22;5053449;28;20266;-71
2023/01/20 01:03:15;;;;;;;13.73;9.53;;;;;;;4.18;58.07;96841.13;5057718;28;20229;-71
2023/01/20 01:05:40;;;;;;;18.17;10.67;;;;;;;4.21;58.14;96840.06;5045637;28;20466;-71
2023/01/20 01:08:06;;;;;;;17.50;10.93;;;;;;;4.20;58.29;96841.00;5052114;28;20262;-70
2023/01/20 01:10:31;;;;;;;17.87;10.40;;;;;;;4.23;58.27;96843.34;5037360;28;20183;-70
2023/01/20 01:13:01;;;;;;;15.23;11.47;;;;;;;4.03;59.06;96845.75;5036943;28;20188;-72
2023/01/20 01:15:26;;;;;;;14.60;10.47;;;;;;;4.08;58.59;96848.00;5037447;28;20200;-73
2023/01/20 01:17:53;;;;;;;16.07;11.27;;;;;;;4.14;58.82;96850.09;5036839;28;20467;-73
2023/01/20 01:20:18;;;;;;;15.43;10.30;;;;;;;4.21;58.56;96855.63;5036527;28;20203;-72
2023/01/20 01:22:43;;;;;;;15.77;10.43;;;;;;;4.24;58.58;96852.78;5040977;28;20505;-72
2023/01/20 01:25:09;;;;;;;15.57;10.40;;;;;;;4.25;57.77;96851.84;5034557;28;20204;-73
2023/01/20 01:27:35;;;;;;;13.87;9.90;;;;;;;4.26;58.03;96863.88;5033915;28;20245;-72
2023/01/20 01:30:00;;;;;;;13.13;9.70;;;;;;;4.15;58.33;96862.97;5035571;28;20215;-72
2023/01/20 01:32:26;;;;;;;13.67;10.07;;;;;;;4.21;58.09;96863.41;5038381;28;20182;-73
2023/01/20 01:34:51;;;;;;;13.83;9.67;;;;;;;4.15;58.59;96860.38;5025625;28;20791;-71
2023/01/20 01:37:16;;;;;;;15.83;10.77;;;;;;;4.14;58.27;96869.09;5040345;28;20237;-71
2023/01/20 01:39:42;;;;;;;12.13;9.07;;;;;;;4.15;58.67;96875.94;5045551;28;20232;-70
2023/01/20 01:42:16;;;;;;;17.00;10.27;;;;;;;3.99;58.86;96875.47;5046491;28;20719;-71
2023/01/20 01:45:09;;;;;;;16.10;11.00;;;;;;;3.99;59.09;96880.66;5037346;28;20257;-72
2023/01/20 01:47:35;;;;;;;14.23;10.00;;;;;;;4.10;58.20;96879.78;5042160;28;20812;-71
2023/01/20 01:50:01;;;;;;;12.73;9.70;;;;;;;4.02;58.42;96877.81;5040832;28;20419;-71
2023/01/20 01:52:27;;;;;;;15.87;10.00;;;;;;;4.09;58.61;96881.56;5041190;28;20429;-72
2023/01/20 01:54:52;;;;;;;14.10;9.47;;;;;;;4.09;58.22;96878.97;5044144;28;21038;-71
2023/01/20 01:57:18;;;;;;;13.27;9.97;;;;;;;4.12;58.76;96877.91;5041651;28;20676;-71
2023/01/20 01:59:44;;;;;;;14.93;9.30;;;;;;;4.15;58.14;96875.94;5048153;28;20221;-72
2023/01/20 02:02:09;;;;;;;15.10;9.77;;;;;;;4.23;58.10;96877.09;5040526;28;20190;-72
2023/01/20 02:04:37;;;;;;;13.73;9.80;;;;;;;4.16;58.01;96874.13;5044141;28;20726;-70
2023/01/20 02:07:11;;;;;;;14.80;9.93;;;;;;;4.19;58.47;96883.44;5039429;28;20188;-71
2023/01/20 02:09:37;;;;;;;14.73;10.17;;;;;;;4.06;58.42;96887.00;5041060;28;20430;-74
2023/01/20 02:12:09;;;;;;;14.60;9.50;;;;;;;4.11;58.33;96884.88;5036216;28;20521;-70
2023/01/20 02:14:56;;;;;;;16.50;9.87;;;;;;;4.14;58.59;96884.66;5042772;28;20540;-72
2023/01/20 02:17:40;;;;;;;10.80;8.70;;;;;;;4.02;58.79;96884.75;5046213;28;20971;-72
2023/01/20 02:20:21;;;;;;;16.50;9.67;;;;;;;3.97;59.13;96890.31;5043208;28;20426;-73
2023/01/20 02:23:08;;;;;;;13.90;9.70;;;;;;;4.11;59.35;96891.81;5045499;28;20474;-73
2023/01/20 02:25:51;;;;;;;16.90;10.20;;;;;;;4.19;58.73;96886.03;5044249;28;20548;-72
2023/01/20 02:28:50;;;;;;;15.70;9.63;;;;;;;4.31;58.56;96895.47;5041623;28;20496;-71
2023/01/20 02:31:59;;;;;;;14.27;8.97;;;;;;;4.32;58.33;96899.69;5044020;28;20414;-70
2023/01/20 02:34:30;;;;;;;15.40;10.20;;;;;;;4.28;58.05;96895.72;5042100;28;20433;-71
2023/01/20 02:37:06;;;;;;;12.60;9.23;;;;;;;4.25;58.12;96895.94;5026334;28;20434;-70
2023/01/20 02:39:54;;;;;;;13.57;9.70;;;;;;;4.22;58.60;96897.00;5042066;28;20516;-72
2023/01/20 02:42:24;;;;;;;14.50;10.00;;;;;;;3.95;58.98;96893.03;5034775;28;20414;-72
2023/01/20 02:44:56;;;;;;;11.47;9.10;;;;;;;4.00;59.28;96898.66;5030854;28;20832;-73
2023/01/20 02:47:49;;;;;;;14.47;8.67;;;;;;;3.94;58.95;96898.31;5031253;28;20436;-74
2023/01/20 02:50:35;;;;;;;12.00;8.00;;;;;;;3.88;59.69;96896.22;5041851;28;20493;-71
2023/01/20 02:53:02;;;;;;;13.30;7.93;;;;;;;3.94;58.87;96898.31;5032216;28;20415;-73
2023/01/20 02:55:39;;;;;;;17.33;8.47;;;;;;;4.03;59.11;96908.00;5033812;28;20457;-72
2023/01/20 02:58:14;;;;;;;12.97;8.20;;;;;;;4.02;59.17;96911.53;5031692;28;20410;-73
2023/01/20 03:00:45;;;;;;;10.50;8.13;;;;;;;4.06;59.07;96912.94;5033190;28;20499;-74
2023/01/20 03:03:14;;;;;;;11.30;8.40;;;;;;;4.06;59.75;96912.13;5035965;28;20529;-74
2023/01/20 03:05:45;;;;;;;9.70;8.70;;;;;;;4.10;59.66;96911.75;5037749;28;20810;-73
2023/01/20 03:08:12;;;;;;;13.63;8.73;;;;;;;4.10;59.23;96922.13;5006759;28;20449;-72
2023/01/20 03:10:38;;;;;;;15.03;8.73;;;;;;;4.11;59.80;96915.16;5030345;28;20414;-71
2023/01/20 03:13:18;;;;;;;11.20;8.90;;;;;;;4.12;60.04;96920.25;5030560;28;20921;-71
2023/01/20 03:16:03;;;;;;;13.00;9.63;;;;;;;4.14;59.27;96926.16;5026624;28;20453;-72
2023/01/20 03:18:31;;;;;;;12.03;9.03;;;;;;;4.17;59.44;96929.44;5035718;28;20474;-74
2023/01/20 03:20:57;;;;;;;12.70;9.10;;;;;;;4.21;59.55;96928.25;5042702;28;20426;-74
2023/01/20 03:23:25;;;;;;;12.53;9.17;;;;;;;4.25;59.56;96929.69;5034361;28;20513;-71
2023/01/20 03:25:50;;;;;;;12.93;9.60;;;;;;;4.29;59.21;96928.47;5034147;28;20458;-73
2023/01/20 03:28:16;;;;;;;12.57;8.97;;;;;;;4.32;59.61;96938.63;5032465;28;20472;-72
2023/01/20 03:30:41;;;;;;;16.73;9.63;;;;;;;4.39;58.88;96937.22;5031448;28;20181;-74
2023/01/20 03:33:07;;;;;;;15.50;9.40;;;;;;;4.37;59.50;96941.69;5013552;28;20606;-72
2023/01/20 03:35:33;;;;;;;17.97;10.00;;;;;;;4.33;59.16;96934.28;5033116;28;20248;-73
2023/01/20 03:37:58;;;;;;;15.43;10.13;;;;;;;4.25;59.20;96938.28;5030708;28;20422;-71
2023/01/20 03:40:28;;;;;;;11.90;9.40;;;;;;;4.19;60.12;96943.09;5030844;28;20179;-73
2023/01/20 03:43:05;;;;;;;17.67;10.20;;;;;;;4.20;59.32;96939.56;5030867;28;20176;-71
2023/01/20 03:45:45;;;;;;;11.40;9.30;;;;;;;4.20;59.64;96942.16;5032676;28;21049;-70
2023/01/20 03:48:36;;;;;;;13.30;10.13;;;;;;;4.31;59.21;96952.53;5032232;28;20518;-71
2023/01/20 03:51:12;;;;;;;11.43;9.40;;;;;;;4.27;59.36;96945.97;5035977;28;20452;-70
2023/01/20 03:53:50;;;;;;;13.03;9.13;;;;;;;4.26;59.63;96946.91;5046129;28;20417;-72
2023/01/20 03:56:34;;;;;;;15.03;9.47;;;;;;;4.30;59.79;96950.88;5028929;28;20509;-71
2023/01/20 03:59:01;;;;;;;11.47;9.50;;;;;;;4.29;59.97;96957.00;5039845;28;20425;-73
2023/01/20 04:01:38;;;;;;;11.70;9.10;;;;;;;4.29;59.26;96955.25;5037431;28;20933;-72
2023/01/20 04:04:07;;;;;;;16.63;9.97;;;;;;;4.23;59.39;96965.28;5015016;28;20445;-71
2023/01/20 04:06:33;;;;;;;12.80;8.87;;;;;;;4.09;59.91;96963.75;5045605;28;20981;-73
2023/01/20 04:09:07;;;;;;;14.03;10.17;;;;;;;4.08;59.79;96962.94;5043511;28;20889;-71
2023/01/20 04:11:33;;;;;;;12.83;9.67;;;;;;;4.12;59.35;96959.16;5032146;28;20431;-70
2023/01/20 04:13:58;;;;;;;15.17;10.43;;;;;;;4.11;59.37;96965.28;5031117;28;20991;-71
2023/01/20 04:16:24;;;;;;;11.70;9.17;;;;;;;4.14;59.10;96966.81;5058907;28;20527;-72
2023/01/20 04:18:50;;;;;;;14.60;9.20;;;;;;;4.08;58.24;96973.28;5058374;28;20544;-71
2023/01/20 04:21:37;;;;;;;11.43;9.97;;;;;;;4.20;58.83;96970.69;5047155;28;20271;-72
2023/01/20 04:24:13;;;;;;;13.77;9.50;;;;;;;4.12;58.82;96973.88;5066490;28;20477;-72
2023/01/20 04:26:38;;;;;;;16.53;10.50;;;;;;;4.25;59.51;96969.41;5058501;28;20475;-71
2023/01/20 04:29:07;;;;;;;13.90;10.13;;;;;;;4.23;59.55;96979.06;5066060;28;20660;-70
2023/01/20 04:31:35;;;;;;;12.60;10.10;;;;;;;4.25;59.05;96981.56;5051984;28;20603;-71
2023/01/20 04:34:02;;;;;;;13.17;10.13;;;;;;;4.28;59.33;96981.34;5055477;28;20456;-71
2023/01/20 04:36:27;;;;;;;12.00;9.87;;;;;;;4.22;58.92;96979.19;5067335;28;20461;-71
2023/01/20 04:38:53;;;;;;;13.27;10.30;;;;;;;4.18;59.11;96982.97;5054749;28;20950;-71
2023/01/20 04:41:18;;;;;;;14.47;10.07;;;;;;;4.15;58.10;96984.88;5059089;28;20183;-72
2023/01/20 04:43:44;;;;;;;13.97;10.90;;;;;;;4.06;58.91;96982.97;5059437;28;20186;-72
2023/01/20 04:46:14;;;;;;;12.60;10.70;;;;;;;4.07;58.44;96983.81;5069661;28;20199;-72
2023/01/20 04:48:40;;;;;;;13.33;10.10;;;;;;;4.18;58.51;96988.16;5062814;28;20429;-71
2023/01/20 04:51:06;;;;;;;13.53;9.50;;;;;;;4.15;57.72;96984.88;5063501;28;20780;-71
2023/01/20 04:53:32;;;;;;;13.30;10.17;;;;;;;4.20;57.55;96994.06;5067020;28;21211;-72
2023/01/20 04:55:57;;;;;;;13.33;9.20;;;;;;;4.18;57.89;96998.53;5054885;28;20517;-71
2023/01/20 04:58:22;;;;;;;13.20;9.87;;;;;;;4.12;57.40;97005.00;5058606;28;20381;-71
2023/01/20 05:00:48;;;;;;;12.03;9.60;;;;;;;4.11;57.54;97004.19;5030957;28;20725;-73
2023/01/20 05:03:13;;;;;;;12.40;9.40;;;;;;;4.23;57.07;97010.19;5041124;28;20655;-73
2023/01/20 05:05:39;;;;;;;13.27;9.57;;;;;;;4.22;57.49;97005.16;5039142;28;20264;-71
2023/01/20 05:08:04;;;;;;;14.63;9.70;;;;;;;4.24;57.51;97011.03;5044278;28;20187;-72
2023/01/20 05:10:33;;;;;;;13.53;9.87;;;;;;;4.24;57.62;97013.63;5056407;28;20534;-72
2023/01/20 05:13:00;;;;;;;11.17;9.27;;;;;;;4.30;57.01;97023.53;5040973;28;20188;-72
2023/01/20 05:15:25;;;;;;;18.80;9.53;;;;;;;4.32;57.24;97026.84;5054829;28;20463;-72
2023/01/20 05:17:51;;;;;;;12.97;8.97;;;;;;;4.27;57.28;97034.16;5064582;28;20943;-71
2023/01/20 05:20:17;;;;;;;12.90;9.80;;;;;;;4.14;58.19;97035.09;5067329;28;20190;-71
2023/01/20 05:22:43;;;;;;;35.50;27.37;;;;;;;4.14;57.92;97042.88;5044894;28;20184;-71
2023/01/20 05:25:09;;;;;;;25.57;20.13;;;;;;;4.03;58.95;97042.03;5065079;28;20480;-71
2023/01/20 05:27:34;;;;;;;24.10;16.57;;;;;;;4.13;58.70;97038.63;5065751;28;20174;-72
2023/01/20 05:30:00;;;;;;;15.20;12.63;;;;;;;4.17;58.32;97041.81;5061046;28;20556;-72
2023/01/20 05:32:25;;;;;;;18.40;11.93;;;;;;;4.24;58.34;97043.00;5051135;28;20202;-73
2023/01/20 05:34:51;;;;;;;15.60;11.73;;;;;;;4.11;58.07;97045.69;5065405;28;20287;-71
2023/01/20 05:37:17;;;;;;;18.40;12.27;;;;;;;4.19;58.41;97050.31;5062843;28;20197;-72
2023/01/20 05:39:42;;;;;;;21.07;13.17;;;;;;;4.20;58.07;97054.56;5058256;28;20754;-72
2023/01/20 05:42:08;;;;;;;51.80;28.40;;;;;;;3.98;58.27;97056.16;5059441;28;20427;-71
2023/01/20 05:44:34;;;;;;;68.10;35.00;;;;;;;3.95;58.72;97063.34;5063704;28;20343;-71
2023/01/20 05:47:00;;;;;;;34.97;21.47;;;;;;;3.87;59.65;97061.31;5068815;28;20849;-72
2023/01/20 05:49:26;;;;;;;16.47;12.00;;;;;;;3.88;59.38;97072.53;5059406;28;20453;-72
2023/01/20 05:51:51;;;;;;;12.33;10.23;;;;;;;3.88;59.37;97070.75;5063072;28;20985;-71
2023/01/20 05:54:17;;;;;;;12.07;10.30;;;;;;;3.87;59.33;97081.25;5067032;28;20194;-71
2023/01/20 05:56:42;;;;;;;16.00;10.17;;;;;;;3.95;58.94;97079.75;5055917;28;20238;-71
2023/01/20 05:59:08;;;;;;;15.70;11.77;;;;;;;4.00;58.86;97079.41;5053090;28;20261;-71
2023/01/20 06:01:34;;;;;;;14.60;11.47;;;;;;;3.94;58.26;97085.88;5059294;28;20178;-72
2023/01/20 06:03:59;;;;;;;26.70;15.90;;;;;;;3.68;59.54;97086.00;5035960;28;20449;-71
2023/01/20 06:06:25;;;;;;;21.33;13.73;;;;;;;3.88;59.25;97090.69;5052675;28;20209;-72
2023/01/20 06:08:51;;;;;;;13.63;10.70;;;;;;;3.90;58.73;97084.44;5051353;28;20298;-71
2023/01/20 06:11:17;;;;;;;16.27;11.40;;;;;;;3.98;58.46;97087.28;5058360;28;20307;-72
2023/01/20 06:13:43;;;;;;;25.50;16.20;;;;;;;4.09;57.80;97090.84;5054113;28;20570;-73
2023/01/20 06:16:08;;;;;;;19.27;13.67;;;;;;;4.12;57.75;97091.44;5056785;28;20172;-72
2023/01/20 06:18:33;;;;;;;17.33;11.17;;;;;;;4.12;57.91;97088.84;5068265;28;20178;-73
2023/01/20 06:20:59;;;;;;;13.17;10.20;;;;;;;4.09;57.03;97098.66;5050366;28;20175;-70
2023/01/20 06:23:25;;;;;;;13.07;9.20;;;;;;;4.06;57.01;97097.06;5067253;28;20183;-73
2023/01/20 06:26:01;;;;;;;12.40;9.40;;;;;;;4.05;57.25;97097.22;5061751;28;20298;-72
2023/01/20 06:28:27;;;;;;;13.00;7.80;;;;;;;4.08;55.50;97097.78;5066897;28;22077;-74
2023/01/20 06:31:00;;;;;;;14.23;8.77;;;;;;;4.01;55.75;97101.81;5063880;28;20501;-70
2023/01/20 06:33:26;;;;;;;13.53;9.13;;;;;;;4.04;56.03;97105.94;5058792;28;20580;-71
2023/01/20 06:35:55;;;;;;;10.87;8.23;;;;;;;4.03;56.12;97114.66;5067039;28;20460;-73
2023/01/20 06:38:22;;;;;;;15.50;9.80;;;;;;;4.05;56.42;97113.59;5061454;28;20597;-72
2023/01/20 06:40:47;;;;;;;17.63;10.00;;;;;;;3.93;57.61;97119.66;5069184;28;20463;-72
2023/01/20 06:43:13;;;;;;;13.30;10.10;;;;;;;4.03;57.79;97122.44;5064002;28;20454;-73
2023/01/20 06:45:38;;;;;;;14.53;9.63;;;;;;;4.08;57.28;97123.72;5071616;28;20682;-73
2023/01/20 06:48:04;;;;;;;13.67;9.53;;;;;;;4.12;57.44;97127.75;5063796;28;20175;-73
2023/01/20 06:50:29;;;;;;;17.63;10.37;;;;;;;4.10;57.21;97127.06;5056081;28;20190;-73
2023/01/20 06:52:55;;;;;;;13.60;9.63;;;;;;;4.07;57.29;97136.84;5066116;28;20705;-71
2023/01/20 06:55:21;;;;;;;13.73;9.63;;;;;;;4.03;57.28;97136.25;5062081;28;20195;-72
2023/01/20 06:57:46;;;;;;;16.17;10.83;;;;;;;4.03;57.14;97145.78;5060114;28;20420;-72
2023/01/20 07:00:12;;;;;;;18.87;9.10;;;;;;;3.94;57.80;97148.09;5055631;28;20214;-71
2023/01/20 07:02:38;;;;;;;14.87;10.90;;;;;;;3.79;58.07;97150.03;5046399;28;20578;-70
2023/01/20 07:05:06;;;;;;;16.27;11.60;;;;;;;3.83;58.13;97159.25;5040544;28;20461;-71
2023/01/20 07:07:33;;;;;;;13.97;9.90;;;;;;;3.93;58.12;97163.75;5038163;28;20191;-74
2023/01/20 07:09:59;;;;;;;14.10;10.20;;;;;;;3.89;58.25;97170.13;5052139;28;20533;-71
2023/01/20 07:12:24;;;;;;;17.73;10.50;;;;;;;3.94;57.83;97168.00;5043975;28;20426;-72
2023/01/20 07:14:50;;;;;;;18.77;11.73;;;;;;;3.82;58.22;97172.34;5049276;28;20244;-73
2023/01/20 07:17:15;;;;;;;18.57;12.37;;;;;;;3.89;58.29;97175.31;5061244;28;20176;-74
2023/01/20 07:19:41;;;;;;;18.13;11.43;;;;;;;3.89;58.38;97178.72;5064941;28;20174;-73
2023/01/20 07:22:06;;;;;;;17.03;11.73;;;;;;;3.93;58.45;97187.09;5062248;28;20380;-73
2023/01/20 07:24:32;;;;;;;16.00;11.17;;;;;;;3.94;58.04;97188.75;5057911;28;20611;-72
2023/01/20 07:26:57;;;;;;;17.23;11.30;;;;;;;3.84;58.14;97194.59;5064905;28;20545;-75
2023/01/20 07:29:22;;;;;;;23.43;14.60;;;;;;;3.82;58.92;97199.06;5065399;28;20195;-74
2023/01/20 07:31:48;;;;;;;33.67;21.40;;;;;;;3.90;58.90;97192.53;5065650;28;20206;-72
2023/01/20 07:34:13;;;;;;;22.10;13.60;;;;;;;3.95;58.23;97205.97;5060595;28;20230;-75
2023/01/20 07:36:39;;;;;;;13.60;9.60;;;;;;;3.78;58.24;97209.78;5058764;28;20798;-73
2023/01/20 07:39:04;;;;;;;15.87;10.00;;;;;;;3.68;59.09;97205.25;5062869;28;20183;-72
2023/01/20 07:41:29;;;;;;;16.90;10.63;;;;;;;4.27;66.51;97215.78;5064509;28;20214;-70
2023/01/20 07:43:55;;;;;;;17.30;10.07;;;;;;;5.01;67.09;97212.03;5056069;28;20267;-72
2023/01/20 07:46:20;;;;;;;12.40;9.40;;;;;;;5.77;61.35;97217.41;5051815;28;20249;-71
2023/01/20 07:48:46;;;;;;;14.33;9.00;;;;;;;6.37;56.70;97222.19;5054371;28;20217;-72
2023/01/20 07:51:12;;;;;;;20.47;10.93;;;;;;;6.64;52.93;97227.88;5035186;28;20720;-73
2023/01/20 07:53:45;;;;;;;13.90;8.90;;;;;;;6.64;52.48;97227.88;5043833;28;20209;-72
2023/01/20 07:56:30;;;;;;;16.97;9.70;;;;;;;6.78;52.62;97232.78;5037979;28;20427;-72
2023/01/20 07:58:56;;;;;;;15.13;9.77;;;;;;;7.07;53.35;97230.34;5061906;28;20520;-72
2023/01/20 08:01:24;;;;;;;13.10;9.70;;;;;;;7.17;51.44;97240.81;5049925;28;20893;-73
2023/01/20 08:03:50;;;;;;;14.70;9.90;;;;;;;6.70;50.01;97240.38;5050552;28;20212;-73
2023/01/20 08:06:18;;;;;;;14.00;9.00;;;;;;;6.14;51.07;97244.91;5042354;28;20480;-71
2023/01/20 08:08:43;;;;;;;11.67;9.53;;;;;;;5.99;51.28;97244.31;5043920;28;20432;-73
2023/01/20 08:11:11;;;;;;;14.90;9.47;;;;;;;5.88;51.40;97249.53;5049373;28;20418;-70
2023/01/20 08:13:37;;;;;;;11.50;8.60;;;;;;;5.58;52.22;97251.84;5045821;28;20186;-71
2023/01/20 08:16:04;;;;;;;10.80;8.30;;;;;;;5.35;52.09;97254.47;5054955;28;20475;-70
2023/01/20 08:18:31;;;;;;;12.80;9.00;;;;;;;5.17;53.20;97251.50;5065085;28;20312;-72
2023/01/20 08:20:56;;;;;;;11.63;9.33;;;;;;;5.19;53.03;97260.00;5060138;28;21120;-70
2023/01/20 08:23:22;;;;;;;13.83;9.37;;;;;;;5.05;53.93;97261.03;5066639;28;20429;-71
2023/01/20 08:25:47;;;;;;;16.30;10.23;;;;;;;5.13;54.33;97260.47;5059605;28;20229;-72
2023/01/20 08:28:13;;;;;;;12.50;10.00;;;;;;;5.19;54.02;97269.56;5062984;28;20182;-71
2023/01/20 08:30:38;;;;;;;9.90;8.20;;;;;;;5.23;53.13;97268.38;5060887;28;20194;-70
2023/01/20 08:33:04;;;;;;;12.07;8.30;;;;;;;5.28;53.41;97270.63;5058829;28;20248;-71
2023/01/20 08:35:29;;;;;;;13.40;9.60;;;;;;;5.28;53.03;97279.28;5051231;28;20234;-71
2023/01/20 08:37:55;;;;;;;13.10;9.63;;;;;;;5.10;53.17;97276.31;5035656;28;20187;-71
2023/01/20 08:40:20;;;;;;;14.47;9.60;;;;;;;4.95;54.42;97275.66;5058240;28;20707;-71
2023/01/20 08:42:46;;;;;;;14.23;9.43;;;;;;;5.04;54.04;97282.75;5049366;28;20667;-71
2023/01/20 08:45:12;;;;;;;11.53;9.10;;;;;;;4.86;53.98;97284.97;5046659;28;20571;-71
2023/01/20 08:47:38;;;;;;;11.13;8.73;;;;;;;4.93;53.85;97287.94;5049123;28;20324;-72
2023/01/20 08:50:05;;;;;;;12.77;9.10;;;;;;;5.03;53.86;97291.53;5050854;28;20187;-71
2023/01/20 08:52:32;;;;;;;12.67;9.57;;;;;;;5.02;53.91;97289.03;5053910;28;20509;-72
2023/01/20 08:54:58;;;;;;;15.87;9.00;;;;;;;5.08;52.82;97297.19;5048378;28;20442;-70
2023/01/20 08:57:25;;;;;;;12.80;9.87;;;;;;;5.08;53.67;97298.97;5053248;28;20418;-72
2023/01/20 08:59:50;;;;;;;15.83;10.03;;;;;;;5.18;53.58;97301.69;5040564;28;20184;-71
2023/01/20 09:02:16;;;;;;;14.07;9.67;;;;;;;5.16;53.65;97306.19;5049992;28;20423;-72
2023/01/20 09:04:41;;;;;;;11.93;9.50;;;;;;;5.03;54.22;97307.13;5051199;28;20622;-71
2023/01/20 09:07:10;;;;;;;17.03;9.50;;;;;;;5.07;54.59;97308.53;5048422;28;20206;-69
2023/01/20 09:09:36;;;;;;;15.57;9.23;;;;;;;5.13;54.40;97311.59;5051479;28;20246;-70
2023/01/20 09:12:03;;;;;;;16.60;10.20;;;;;;;5.15;54.63;97309.72;5053175;28;20423;-70
2023/01/20 09:14:28;;;;;;;13.83;9.70;;;;;;;5.32;54.35;97317.06;5060494;28;20198;-72
2023/01/20 09:16:54;;;;;;;14.70;9.90;;;;;;;5.40;54.07;97321.69;5064135;28;20508;-72
2023/01/20 09:19:19;;;;;;;12.40;8.50;;;;;;;5.46;53.34;97317.78;5065668;28;20233;-74
2023/01/20 09:21:45;;;;;;;13.60;9.30;;;;;;;5.47;53.83;97317.69;5065970;28;20713;-73
2023/01/20 09:24:10;;;;;;;18.83;9.83;;;;;;;5.54;53.69;97323.25;5067053;28;20571;-71
2023/01/20 09:26:40;;;;;;;12.13;8.60;;;;;;;5.63;53.59;97332.09;5061062;28;20202;-73
2023/01/20 09:29:11;;;;;;;12.30;8.90;;;;;;;5.47;52.38;97329.84;5069436;28;20410;-72
2023/01/20 09:31:42;;;;;;;13.10;9.17;;;;;;;5.42;52.46;97334.56;5051532;28;20190;-73
2023/01/20 09:34:08;;;;;;;15.47;9.70;;;;;;;5.29;53.01;97337.25;5062407;28;20447;-72
2023/01/20 09:36:34;;;;;;;14.07;9.00;;;;;;;5.25;52.61;97341.88;5045924;28;20850;-72
2023/01/20 09:44:47;;;;;;;11.03;8.77;;;;;;;5.49;52.90;97346.97;5060776;28;20849;-71
2023/01/20 09:47:20;;;;;;;14.90;9.40;;;;;;;5.50;52.76;97342.63;5048970;28;20423;-71
2023/01/20 09:55:26;;;;;;;13.60;8.57;;;;;;;5.64;51.67;97358.00;5044005;28;20453;-72
2023/01/20 09:58:15;;;;;;;15.27;9.30;;;;;;;5.35;52.21;97353.22;5035301;28;20855;-73
2023/01/20 10:00:45;;;;;;;13.90;8.60;;;;;;;5.47;52.64;97361.03;5048637;28;20437;-74
2023/01/20 10:03:25;;;;;;;17.53;9.87;;;;;;;5.46;51.86;97356.78;5037185;28;20472;-73
2023/01/20 10:05:53;;;;;;;19.10;9.10;;;;;;;5.52;51.90;97353.72;5052425;28;20457;-72
2023/01/20 10:08:35;;;;;;;14.67;10.00;;;;;;;5.52;52.09;97353.72;5052790;28;20423;-72
2023/01/20 10:11:09;;;;;;;16.83;10.27;;;;;;;5.66;52.08;97361.31;5041620;28;20425;-72
2023/01/20 10:13:45;;;;;;;12.23;8.63;;;;;;;5.78;51.56;97354.31;5035316;28;20441;-71
2023/01/20 10:16:19;;;;;;;14.40;9.40;;;;;;;5.81;51.14;97353.25;5036987;28;20432;-71
2023/01/20 10:18:48;;;;;;;13.50;9.77;;;;;;;5.92;51.01;97361.03;5037769;28;20426;-72
2023/01/20 10:21:18;;;;;;;12.97;9.87;;;;;;;6.04;51.04;97356.69;5038756;28;20876;-71
2023/01/20 10:23:50;;;;;;;10.27;8.70;;;;;;;6.07;49.85;97363.44;5032781;28;20419;-70
2023/01/20 10:26:20;;;;;;;12.20;9.40;;;;;;;6.29;50.15;97358.22;5035454;28;20446;-71
2023/01/20 10:28:52;;;;;;;15.20;9.27;;;;;;;6.63;49.05;97359.88;5034423;28;20498;-73
2023/01/20 10:31:22;;;;;;;15.53;10.30;;;;;;;6.76;49.33;97367.53;5055365;28;20495;-72
2023/01/20 10:33:48;;;;;;;13.43;9.50;;;;;;;7.00;48.67;97371.69;5045521;28;21009;-72
2023/01/20 10:36:20;;;;;;;11.80;8.50;;;;;;;7.56;48.22;97362.72;5044516;28;20430;-71
2023/01/20 10:38:57;;;;;;;11.57;8.60;;;;;;;8.13;47.40;97360.50;5051489;28;20425;-71
2023/01/20 10:41:37;;;;;;;14.00;8.47;;;;;;;8.27;46.16;97356.66;5064997;28;20420;-72
2023/01/20 10:44:08;;;;;;;10.10;8.00;;;;;;;8.83;45.39;97353.59;5062968;28;20447;-72
2023/01/20 10:47:05;;;;;;;10.33;7.13;;;;;;;9.47;43.80;97351.31;5038837;28;21161;-72
2023/01/20 10:50:08;;;;;;;13.93;8.87;;;;;;;9.92;42.65;97352.41;5047575;28;20465;-71
2023/01/20 10:52:36;;;;;;;11.07;8.10;;;;;;;10.43;41.72;97352.88;5053456;28;20782;-73
2023/01/20 10:55:14;;;;;;;10.20;7.00;;;;;;;10.64;39.96;97351.75;5051201;28;20446;-73
2023/01/20 10:57:40;;;;;;;10.70;7.80;;;;;;;11.02;40.77;97355.06;5055465;28;21132;-71
2023/01/20 11:00:18;;;;;;;13.73;7.33;;;;;;;10.99;39.08;97355.34;5044081;28;20453;-70
2023/01/20 11:02:47;;;;;;;10.67;7.57;;;;;;;11.41;39.26;97349.44;5053525;28;20190;-70
2023/01/20 11:05:13;;;;;;;14.07;7.90;;;;;;;11.84;39.89;97358.19;5047032;28;20877;-71
2023/01/20 11:07:39;;;;;;;12.30;7.63;;;;;;;11.79;37.27;97352.63;5054234;28;20447;-71
2023/01/20 11:10:17;;;;;;;16.80;7.40;;;;;;;11.51;37.40;97360.66;5049795;28;20183;-71
2023/01/20 11:12:43;;;;;;;16.00;9.07;;;;;;;11.38;37.92;97365.47;5042119;28;20545;-72
2023/01/20 11:15:16;;;;;;;11.77;6.97;;;;;;;11.26;37.32;97362.31;5037913;28;20520;-71
2023/01/20 11:17:41;;;;;;;13.23;7.63;;;;;;;10.96;38.14;97359.09;5050698;28;20530;-73
2023/01/20 11:20:18;;;;;;;9.30;6.00;;;;;;;11.02;37.03;97360.28;5058899;28;20428;-71
2023/01/20 11:22:45;;;;;;;8.83;5.90;;;;;;;11.43;36.83;97352.75;5054974;28;20235;-73
2023/01/20 11:25:23;;;;;;;6.60;5.60;;;;;;;11.43;36.87;97357.16;5065281;28;20460;-73
2023/01/20 11:27:48;;;;;;;10.50;5.67;;;;;;;11.41;36.32;97359.94;5057334;28;20451;-73
2023/01/20 11:30:27;;;;;;;7.93;5.40;;;;;;;11.28;36.30;97362.94;5061693;28;20417;-73
2023/01/20 11:33:18;;;;;;;7.57;5.50;;;;;;;11.49;36.57;97356.53;5057883;28;20567;-73
2023/01/20 11:36:05;;;;;;;8.37;5.37;;;;;;;11.64;37.68;97364.66;5045110;28;20448;-74
2023/01/20 11:39:01;;;;;;;9.47;5.40;;;;;;;11.41;35.70;97364.34;5051021;28;20953;-72
2023/01/20 11:41:28;;;;;;;8.67;5.33;;;;;;;11.26;36.21;97361.47;5040120;28;20423;-73
2023/01/20 11:43:56;;;;;;;7.10;5.33;;;;;;;10.83;36.47;97364.75;5040688;28;21051;-73
2023/01/20 11:46:30;;;;;;;5.70;4.60;;;;;;;10.63;36.89;97366.69;5044293;28;20463;-74
2023/01/20 11:49:10;;;;;;;6.23;4.27;;;;;;;10.24;36.55;97359.84;5042054;28;20526;-71